Bastreet, United Kingdom

10:56 PM BST on July 26, 2016 (GMT +0100)
Treguddick | | Change Station

Elev 502 ft 50.61 °N, 4.43 °W | Updated 6 minutes ago

Mostly Cloudy
Mostly Cloudy
62.6 °F
Feels Like 62.6 °F
N
2.5
Wind Variable Wind from SSW

Today
High -- | Low -- °F
--% Chance of Precip.
Yesterday
High -- | Low -- °F
Precip. -- in
Pressure 30.12 in
Visibility 6.2 miles
Clouds Few 800 ft
Mostly Cloudy 2500 ft
Dew Point 53 °F
Humidity 76%
Rainfall 0.01 in
Snow Depth Not available.
5:37 AM 9:10 PM
Waning Gibbous, 50% visible
METAR EGTE 262120Z 20007KT 9999 FEW008 BKN025 17/15 Q1020
Pressure 30.12 in
Visibility 6.2 miles
Clouds Few 800 ft
Mostly Cloudy 2500 ft
Dew Point 53 °F
Humidity 76%
Rainfall 0.01 in
Snow Depth Not available.
5:37 AM 9:10 PM
Waning Gibbous, 50% visible
METAR EGTE 262120Z 20007KT 9999 FEW008 BKN025 17/15 Q1020

10-Day Weather Forecast

×

Almanac

Astronomy

Jul. 26, 2016 Rise Set
Actual Time
Civil Twilight
Nautical Twilight
Astronomical Twilight
Moon
Length of Visible Light
Length of Day
Tomorrow will be .
, % of the Moon is Illuminated

Today's Extremes

Country Highs Country Lows

Community

WunderPhotos

Upload Photos

1,927,702 photos uploaded!

WunderBlog® & News

Nearby

Air Quality

  Air Quality AQ Index Pollutant
Not available.

Snow Depth

Station Depth Elevation

Earthquake Activity

City Distance Mag. Time & Date
Minimum magnitude displayed is 2.5.

Coastal Water Temperatures

Place Temperature

Stations

Nearby Weather Stations

Station Location Temp. Windchill Dew Point Humidity Wind Precip. Elev Updated Type